createdAt,value
2019-02-10T00:00:29.025Z,21.1
2019-02-10T00:03:59.156Z,17.64
2019-02-10T00:07:29.391Z,14.23
2019-02-10T00:10:59.435Z,16.69
2019-02-10T00:14:29.368Z,18.54
2019-02-10T00:18:01.206Z,18.54
2019-02-10T00:21:31.305Z,19.19
2019-02-10T00:25:01.412Z,16.46
2019-02-10T00:28:31.582Z,16.2
2019-02-10T00:32:01.818Z,14.1
2019-02-10T00:35:32.016Z,13.47
2019-02-10T00:39:03.562Z,13.69
2019-02-10T00:42:33.692Z,16.65
2019-02-10T00:46:03.800Z,17.43
2019-02-10T00:49:33.908Z,15.66
2019-02-10T00:53:04.056Z,22.52
2019-02-10T00:56:34.174Z,15.99
2019-02-10T01:00:04.591Z,15.93
2019-02-10T01:03:34.733Z,16.04
2019-02-10T01:07:04.877Z,20.93
2019-02-10T01:10:34.965Z,22.55
2019-02-10T01:14:05.184Z,18.38
2019-02-10T01:17:35.251Z,20.74
2019-02-10T01:21:06.500Z,18.71
2019-02-10T01:24:36.618Z,17.24
2019-02-10T01:28:07.015Z,18.95
2019-02-10T01:31:37.178Z,16
2019-02-10T01:35:07.573Z,16.67
2019-02-10T01:38:37.709Z,14.93
2019-02-10T01:42:07.917Z,14.94
2019-02-10T01:45:37.936Z,25.33
2019-02-10T01:49:08.103Z,16.2
2019-02-10T01:52:38.262Z,19.3
2019-02-10T01:56:08.370Z,18.57
2019-02-10T01:59:38.587Z,19.85
2019-02-10T02:00:15.207Z,19.55
2019-02-10T02:03:45.315Z,19.27
2019-02-10T02:07:15.523Z,20.61
2019-02-10T02:10:45.602Z,18.64
2019-02-10T02:14:15.709Z,19.93
2019-02-10T02:17:45.877Z,19.56
2019-02-10T02:21:16.938Z,17.8
2019-02-10T02:24:46.968Z,15.21
2019-02-10T02:28:17.126Z,17.81
2019-02-10T02:31:47.287Z,16.59
2019-02-10T02:35:17.337Z,21.06
2019-02-10T02:38:47.468Z,28.54
2019-02-10T02:42:17.582Z,23.74
2019-02-10T02:45:47.709Z,16.17
2019-02-10T02:49:17.926Z,17.49
2019-02-10T02:52:48.074Z,13.99
2019-02-10T02:56:18.111Z,24.74
2019-02-10T02:59:48.090Z,25.41
2019-02-10T03:03:18.207Z,22.48
2019-02-10T03:06:48.815Z,17.61
2019-02-10T03:10:18.892Z,19.18
2019-02-10T03:13:48.991Z,19.33
2019-02-10T03:17:19.120Z,17.55
2019-02-10T03:20:49.241Z,18.31
2019-02-10T03:24:20.185Z,19.06
2019-02-10T03:27:50.343Z,17.82
2019-02-10T03:31:20.482Z,20.6
2019-02-10T03:34:50.569Z,16.09
2019-02-10T03:38:20.647Z,18.22
2019-02-10T03:41:50.874Z,19.64
2019-02-10T03:45:20.932Z,18.95
2019-02-10T03:48:51.071Z,19.79
2019-02-10T03:52:21.228Z,14.46
2019-02-10T03:55:51.356Z,18.26
2019-02-10T03:59:21.484Z,19.59
2019-02-10T04:00:15.888Z,22.98
2019-02-10T04:03:45.993Z,24.67
2019-02-10T04:07:16.040Z,26.84
2019-02-10T04:10:46.187Z,15.96
2019-02-10T04:14:16.255Z,25.07
2019-02-10T04:17:46.363Z,22.85
2019-02-10T04:21:16.492Z,19.76
2019-02-10T04:24:47.531Z,17.99
2019-02-10T04:28:17.538Z,24.75
2019-02-10T04:31:47.649Z,21.53
2019-02-10T04:35:17.721Z,8.09
2019-02-10T04:38:47.854Z,27.7
2019-02-10T04:42:17.908Z,28.73
2019-02-10T04:45:48.136Z,23.5
2019-02-10T04:49:18.314Z,22.77
2019-02-10T04:52:48.473Z,25.38
2019-02-10T04:56:18.618Z,19.45
2019-02-10T04:59:48.858Z,25.02
2019-02-10T05:03:18.916Z,29.73
2019-02-10T05:06:49.094Z,23.18
2019-02-10T05:10:19.171Z,23.34
2019-02-10T05:13:49.211Z,29.95
2019-02-10T05:17:19.247Z,31.2
2019-02-10T05:20:49.256Z,22.82
2019-02-10T05:24:19.484Z,23.34
2019-02-10T05:27:50.664Z,27.89
2019-02-10T05:31:20.851Z,20.18
2019-02-10T05:34:50.938Z,22.31
2019-02-10T05:38:21.026Z,20.88
2019-02-10T05:41:51.194Z,25.73
2019-02-10T05:45:21.412Z,22.62
2019-02-10T05:48:51.482Z,19.89
2019-02-10T05:52:21.507Z,15.7
2019-02-10T05:55:51.605Z,20.98
2019-02-10T05:59:21.698Z,25.04
2019-02-10T06:00:16.123Z,36.24
2019-02-10T06:03:46.262Z,25.95
2019-02-10T06:07:16.576Z,22.68
2019-02-10T06:10:46.937Z,24.71
2019-02-10T06:14:17.135Z,21.21
2019-02-10T06:17:47.303Z,26.48
2019-02-10T06:21:17.361Z,26.86
2019-02-10T06:24:47.558Z,23.12
2019-02-10T06:28:17.739Z,25.79
2019-02-10T06:31:47.924Z,23.86
2019-02-10T06:35:18.116Z,31.96
2019-02-10T06:38:48.261Z,21.2
2019-02-10T06:42:18.290Z,25.86
2019-02-10T06:45:48.426Z,29.64
2019-02-10T06:49:18.524Z,33
2019-02-10T06:52:48.662Z,40.65
2019-02-10T06:56:18.851Z,24
2019-02-10T06:59:54.129Z,27.2
2019-02-10T07:03:32.096Z,23.18
2019-02-10T07:07:02.244Z,32.91
2019-02-10T07:10:32.383Z,27.29
2019-02-10T07:14:10.054Z,31.83
2019-02-10T07:20:33.057Z,33.49
2019-02-10T07:24:44.144Z,26.81
2019-02-10T07:29:00.353Z,32.04
2019-02-10T07:32:35.460Z,31.95
2019-02-10T07:38:42.267Z,31.18
2019-02-10T07:42:22.493Z,33.1
2019-02-10T07:46:03.074Z,25.76
2019-02-10T07:50:13.740Z,26.1
2019-02-10T07:58:28.596Z,28.9
2019-02-10T08:01:53.594Z,27.24
2019-02-10T08:05:34.502Z,32.34
2019-02-10T08:13:18.088Z,21.11
2019-02-10T08:16:59.486Z,26.45
2019-02-10T08:20:45.924Z,28.27
2019-02-10T08:26:48.120Z,23.61
2019-02-10T08:30:28.040Z,27.62
2019-02-10T08:36:33.026Z,34.15
2019-02-10T08:40:15.753Z,32.31
2019-02-10T08:43:53.221Z,32.64
2019-02-10T08:47:40.989Z,28.14
2019-02-10T08:53:37.105Z,35.56
2019-02-10T08:57:07.184Z,34.79
2019-02-10T09:00:37.394Z,34.65
2019-02-10T09:04:07.500Z,39.49
2019-02-10T09:07:37.625Z,32.5
2019-02-10T09:11:07.752Z,33.51
2019-02-10T09:14:37.878Z,32.62
2019-02-10T09:18:08.044Z,29.88
2019-02-10T09:21:38.242Z,31.46
2019-02-10T09:25:08.799Z,27.49
2019-02-10T09:28:38.937Z,28.33
2019-02-10T09:32:10.155Z,33.5
2019-02-10T09:35:40.243Z,42.65
2019-02-10T09:39:11.161Z,34.89
2019-02-10T09:42:41.419Z,27.36
2019-02-10T09:46:11.537Z,34.98
2019-02-10T09:49:41.685Z,32.65
2019-02-10T09:53:11.684Z,59.06
2019-02-10T09:56:41.852Z,34.05
2019-02-10T10:00:16.202Z,32.65
2019-02-10T10:03:46.308Z,36.31
2019-02-10T10:07:16.406Z,31.27
2019-02-10T10:10:46.555Z,32.65
2019-02-10T10:14:16.673Z,31.62
2019-02-10T10:17:46.782Z,37.38
2019-02-10T10:21:16.879Z,36.39
2019-02-10T10:24:50.509Z,31.86
2019-02-10T10:28:20.978Z,31.01
2019-02-10T10:31:51.074Z,36.09
2019-02-10T10:35:22.073Z,26.16
2019-02-10T10:38:52.220Z,33.19
2019-02-10T10:42:22.309Z,31.79
2019-02-10T10:45:52.541Z,32.24
2019-02-10T10:49:22.634Z,31.56
2019-02-10T10:52:52.703Z,31.9
2019-02-10T10:56:22.853Z,32.88
2019-02-10T10:59:52.970Z,37.55
2019-02-10T11:03:23.128Z,32.22
2019-02-10T11:06:53.287Z,34.34
2019-02-10T11:10:23.395Z,33.29
2019-02-10T11:13:53.495Z,28.44
2019-02-10T11:17:23.642Z,31.69
2019-02-10T11:20:53.720Z,32.65
2019-02-10T11:24:28.557Z,31.21
2019-02-10T11:27:59.126Z,32.71
2019-02-10T11:31:29.219Z,30.56
2019-02-10T11:34:59.364Z,33.05
2019-02-10T11:38:30.493Z,39.35
2019-02-10T11:42:00.600Z,35.38
2019-02-10T11:45:30.729Z,33.82
2019-02-10T11:49:00.877Z,33.61
2019-02-10T11:52:31.049Z,34.56
2019-02-10T11:56:01.294Z,39.05
2019-02-10T11:59:31.393Z,34.58
2019-02-10T12:00:16.362Z,35.01
2019-02-10T12:03:46.461Z,35.69
2019-02-10T12:07:16.631Z,29.74
2019-02-10T12:10:46.787Z,26.38
2019-02-10T12:14:16.816Z,31.04
2019-02-10T12:17:47.016Z,33.3
2019-02-10T12:21:17.103Z,27.35
2019-02-10T12:24:47.233Z,34.64
2019-02-10T12:28:17.323Z,27.41
2019-02-10T12:31:47.469Z,32.86
2019-02-10T12:35:17.790Z,30
2019-02-10T12:38:48.026Z,36.54
2019-02-10T12:42:18.076Z,27.59
2019-02-10T12:45:48.195Z,25.65
2019-02-10T12:49:18.452Z,31.49
2019-02-10T12:52:48.600Z,29.9
2019-02-10T12:56:18.669Z,31.26
2019-02-10T12:59:48.707Z,31.64
2019-02-10T13:03:18.806Z,23.75
2019-02-10T13:06:49.004Z,30.3
2019-02-10T13:10:19.133Z,26.39
2019-02-10T13:13:49.271Z,28.95
2019-02-10T13:17:19.344Z,29.34
2019-02-10T13:20:49.445Z,35.44
2019-02-10T13:24:19.647Z,31.33
2019-02-10T13:27:49.916Z,34.53
2019-02-10T13:31:20.044Z,27.05
2019-02-10T13:34:50.111Z,31.61
2019-02-10T13:38:20.240Z,26.14
2019-02-10T13:41:59.978Z,25.08
2019-02-10T13:45:30.108Z,27.7
2019-02-10T13:49:00.277Z,37.05
2019-02-10T13:52:30.323Z,32.58
2019-02-10T13:56:00.482Z,26.14
2019-02-10T13:59:30.542Z,30.61
2019-02-10T14:00:16.893Z,31.81
2019-02-10T14:03:46.929Z,25.93
2019-02-10T14:07:17.101Z,26.94
2019-02-10T14:10:55.331Z,31.75
2019-02-10T14:14:25.425Z,26.2
2019-02-10T14:17:55.469Z,38.01
2019-02-10T14:21:25.563Z,26.09
2019-02-10T14:24:55.765Z,21.69
2019-02-10T14:28:25.944Z,23.8
2019-02-10T14:31:56.074Z,24.45
2019-02-10T14:35:26.226Z,46.4
2019-02-10T14:38:56.433Z,21.31
2019-02-10T14:42:27.485Z,27.85
2019-02-10T14:45:57.644Z,27.24
2019-02-10T14:49:27.783Z,34.71
2019-02-10T14:52:57.892Z,33.16
2019-02-10T14:56:28.043Z,27.66
2019-02-10T14:59:58.200Z,26.94
2019-02-10T15:03:28.225Z,26.14
2019-02-10T15:06:58.540Z,23.59
2019-02-10T15:10:28.629Z,30.18
2019-02-10T15:13:58.778Z,27.24
2019-02-10T15:17:29.843Z,34.79
2019-02-10T15:21:00.120Z,37.76
2019-02-10T15:24:30.225Z,34.74
2019-02-10T15:28:00.366Z,32.64
2019-02-10T15:31:30.415Z,25.66
2019-02-10T15:35:00.524Z,33.5
2019-02-10T15:38:30.733Z,22.62
2019-02-10T15:42:08.985Z,17.19
2019-02-10T15:45:39.462Z,20.94
2019-02-10T15:49:09.481Z,18.79
2019-02-10T15:52:39.610Z,16.45
2019-02-10T15:56:09.769Z,21.33
2019-02-10T15:59:39.838Z,18.43
2019-02-10T16:00:18.787Z,19.69
2019-02-10T16:03:48.958Z,22.01
2019-02-10T16:07:19.138Z,21.24
2019-02-10T16:10:49.197Z,21.5
2019-02-10T16:14:19.236Z,22.21
2019-02-10T16:17:49.343Z,22.96
2019-02-10T16:21:19.453Z,25.77
2019-02-10T16:24:49.585Z,23.89
2019-02-10T16:28:19.692Z,15.84
2019-02-10T16:31:49.872Z,19.54
2019-02-10T16:35:19.921Z,24.66
2019-02-10T16:38:49.969Z,23.3
2019-02-10T16:42:20.169Z,20.77
2019-02-10T16:45:51.289Z,21.26
2019-02-10T16:49:21.418Z,22.74
2019-02-10T16:52:51.527Z,14.1
2019-02-10T16:56:21.717Z,17.14
2019-02-10T16:59:51.834Z,18.64
2019-02-10T17:03:21.884Z,20.71
2019-02-10T17:06:52.143Z,23.27
2019-02-10T17:10:22.161Z,20.79
2019-02-10T17:13:52.347Z,23.68
2019-02-10T17:17:22.414Z,19.38
2019-02-10T17:20:52.499Z,13.79
2019-02-10T17:24:22.520Z,17.57
2019-02-10T17:27:52.631Z,19.14
2019-02-10T17:31:22.806Z,15.44
2019-02-10T17:34:52.987Z,17.21
2019-02-10T17:38:23.066Z,24.49
2019-02-10T17:41:53.276Z,20.71
2019-02-10T17:45:23.453Z,18.05
2019-02-10T17:48:54.663Z,22.27
2019-02-10T17:52:31.861Z,19.35
2019-02-10T17:56:02.462Z,18.82
2019-02-10T17:59:32.471Z,16.04
2019-02-10T18:00:16.850Z,21.42
2019-02-10T18:03:46.858Z,22.1
2019-02-10T18:07:16.949Z,18.36
2019-02-10T18:10:47.136Z,24.6
2019-02-10T18:16:46.367Z,24.83
2019-02-10T18:20:25.995Z,20.82
2019-02-10T18:24:21.223Z,18.91
2019-02-10T18:30:20.253Z,22.46
2019-02-10T18:34:07.421Z,19.64
2019-02-10T18:37:44.293Z,19.1
2019-02-10T18:41:23.131Z,18.21
2019-02-10T18:45:31.489Z,19.56
2019-02-10T18:49:14.678Z,17.01
2019-02-10T18:52:53.080Z,18.51
2019-02-10T18:56:37.827Z,28.87
2019-02-10T19:02:39.367Z,22.01
2019-02-10T19:06:46.994Z,21.49
2019-02-10T19:10:24.784Z,18.36
2019-02-10T19:14:20.982Z,23.56
2019-02-10T19:18:13.480Z,20.11
2019-02-10T19:21:55.361Z,27.35
2019-02-10T19:26:36.919Z,20.62
2019-02-10T19:30:19.097Z,25.54
2019-02-10T19:34:05.888Z,27.77
2019-02-10T19:37:46.466Z,22.58
2019-02-10T19:41:29.267Z,22.12
2019-02-10T19:49:49.414Z,26.64
2019-02-10T19:53:33.742Z,23.62
2019-02-10T19:57:26.085Z,21.74
2019-02-10T20:00:28.712Z,23.08
2019-02-10T20:04:39.041Z,24.71
2019-02-10T20:08:19.278Z,24.11
2019-02-10T20:14:52.026Z,25.74
2019-02-10T20:18:32.768Z,21.96
2019-02-10T20:22:42.916Z,24.19
2019-02-10T20:29:10.865Z,22.64
2019-02-10T20:33:03.534Z,19.52
2019-02-10T20:36:44.502Z,23.48
2019-02-10T20:42:46.830Z,22.36
2019-02-10T20:46:29.209Z,20.64
2019-02-10T20:52:27.077Z,23.95
2019-02-10T20:56:03.077Z,23.52
2019-02-10T20:59:41.312Z,27.21
2019-02-10T21:06:01.737Z,24.56
2019-02-10T21:09:49.694Z,21.12
2019-02-10T21:18:13.029Z,20.95
2019-02-10T21:21:50.003Z,33.45
2019-02-10T21:26:35.201Z,23.78
2019-02-10T21:30:13.538Z,20.74
2019-02-10T21:33:51.537Z,24.98
2019-02-10T21:38:33.317Z,25.38
2019-02-10T21:42:10.106Z,24.41
2019-02-10T21:45:46.264Z,24.18
2019-02-10T21:49:18.393Z,21.49
2019-02-10T21:52:48.624Z,25.81
2019-02-10T21:56:18.813Z,23.61
2019-02-10T21:59:48.842Z,19.16
2019-02-10T22:00:16.951Z,24.81
2019-02-10T22:03:47.100Z,25.29
2019-02-10T22:07:17.614Z,26.79
2019-02-10T22:10:47.690Z,25.04
2019-02-10T22:14:17.731Z,18.81
2019-02-10T22:17:47.888Z,26.75
2019-02-10T22:21:18.127Z,21.31
2019-02-10T22:24:48.325Z,24.9
2019-02-10T22:28:18.626Z,25.85
2019-02-10T22:31:48.743Z,35.66
2019-02-10T22:35:18.782Z,24.06
2019-02-10T22:38:48.869Z,27.58
2019-02-10T22:42:18.991Z,30.67
2019-02-10T22:45:49.030Z,30.57
2019-02-10T22:49:19.189Z,26.82
2019-02-10T22:52:50.229Z,26.76
2019-02-10T22:56:20.442Z,26.12
2019-02-10T22:59:50.496Z,21.14
2019-02-10T23:03:20.765Z,26.79
2019-02-10T23:06:50.926Z,29.7
2019-02-10T23:10:21.054Z,32.17
2019-02-10T23:13:51.123Z,25.5
2019-02-10T23:17:21.262Z,32.51
2019-02-10T23:20:51.332Z,30.79
2019-02-10T23:24:21.382Z,32.49
2019-02-10T23:27:51.700Z,40.69
2019-02-10T23:31:21.718Z,33.66
2019-02-10T23:34:51.809Z,29.2
2019-02-10T23:38:22.008Z,30.4
2019-02-10T23:41:52.197Z,34.33
2019-02-10T23:45:22.246Z,31.77
2019-02-10T23:48:52.346Z,41.88
2019-02-10T23:52:22.373Z,41.3
2019-02-10T23:55:53.396Z,38.96
2019-02-10T23:59:23.476Z,36.98
